sensor_id;sensor_type;location;lat;lon;timestamp;pressure;altitude;pressure_sealevel;temperature;humidity
43934;BME280;59081;42.706;23.306;2022-11-11T00:01:04;96195.81;;;7.49;77.94
43934;BME280;59081;42.706;23.306;2022-11-11T00:03:30;96253.78;;;7.86;77.51
43934;BME280;59081;42.706;23.306;2022-11-11T00:06:02;96405.88;;;8.81;77.92
43934;BME280;59081;42.706;23.306;2022-11-11T00:08:28;96395.66;;;8.75;77.65
43934;BME280;59081;42.706;23.306;2022-11-11T00:13:27;96393.31;;;8.80;77.94
43934;BME280;59081;42.706;23.306;2022-11-11T00:15:53;96284.34;;;8.13;77.81
43934;BME280;59081;42.706;23.306;2022-11-11T00:18:18;96307.47;;;8.23;77.59
43934;BME280;59081;42.706;23.306;2022-11-11T00:21:02;96269.47;;;8.07;77.38
43934;BME280;59081;42.706;23.306;2022-11-11T00:23:46;96251.06;;;7.93;77.20
43934;BME280;59081;42.706;23.306;2022-11-11T00:26:47;96238.50;;;7.82;77.21
43934;BME280;59081;42.706;23.306;2022-11-11T00:29:12;96367.84;;;8.62;77.26
43934;BME280;59081;42.706;23.306;2022-11-11T00:31:38;96291.41;;;8.11;77.29
43934;BME280;59081;42.706;23.306;2022-11-11T00:34:23;96335.69;;;8.41;77.33
43934;BME280;59081;42.706;23.306;2022-11-11T00:36:49;96354.53;;;8.35;78.01
43934;BME280;59081;42.706;23.306;2022-11-11T00:39:14;96288.28;;;8.05;78.30
43934;BME280;59081;42.706;23.306;2022-11-11T00:41:40;96288.28;;;7.94;79.07
43934;BME280;59081;42.706;23.306;2022-11-11T00:44:06;96286.72;;;7.79;79.49
43934;BME280;59081;42.706;23.306;2022-11-11T00:46:31;96332.97;;;8.09;80.02
43934;BME280;59081;42.706;23.306;2022-11-11T00:49:16;96384.34;;;8.44;81.46
43934;BME280;59081;42.706;23.306;2022-11-11T00:51:59;96261.63;;;7.56;82.67
43934;BME280;59081;42.706;23.306;2022-11-11T00:54:25;96327.88;;;8.08;82.81
43934;BME280;59081;42.706;23.306;2022-11-11T00:56:50;96194.28;;;7.26;82.44
43934;BME280;59081;42.706;23.306;2022-11-11T00:59:16;96209.16;;;7.36;82.45
43934;BME280;59081;42.706;23.306;2022-11-11T01:01:42;96253.81;;;7.72;82.73
43934;BME280;59081;42.706;23.306;2022-11-11T01:04:07;96316.09;;;8.11;82.51
43934;BME280;59081;42.706;23.306;2022-11-11T01:06:33;96285.94;;;7.89;82.16
43934;BME280;59081;42.706;23.306;2022-11-11T01:09:04;96341.19;;;8.27;81.65
43934;BME280;59081;42.706;23.306;2022-11-11T01:11:29;96259.31;;;7.79;81.75
43934;BME280;59081;42.706;23.306;2022-11-11T01:13:55;96223.25;;;7.59;81.20
43934;BME280;59081;42.706;23.306;2022-11-11T01:16:23;96395.66;;;8.75;81.34
43934;BME280;59081;42.706;23.306;2022-11-11T01:18:52;96394.88;;;8.78;81.57
43934;BME280;59081;42.706;23.306;2022-11-11T01:21:22;96265.94;;;7.99;82.01
43934;BME280;59081;42.706;23.306;2022-11-11T01:23:49;96393.28;;;8.84;82.19
43934;BME280;59081;42.706;23.306;2022-11-11T01:26:17;96177.06;;;7.44;82.73
43934;BME280;59081;42.706;23.306;2022-11-11T01:28:43;96400.38;;;8.78;83.81
43934;BME280;59081;42.706;23.306;2022-11-11T01:31:13;96264.38;;;7.95;84.25
43934;BME280;59081;42.706;23.306;2022-11-11T01:33:40;96349.44;;;8.48;85.21
43934;BME280;59081;42.706;23.306;2022-11-11T01:38:37;96314.91;;;8.33;84.99
43934;BME280;59081;42.706;23.306;2022-11-11T01:41:06;96234.97;;;7.88;85.24
43934;BME280;59081;42.706;23.306;2022-11-11T01:43:51;96316.88;;;8.29;84.09
43934;BME280;59081;42.706;23.306;2022-11-11T01:48:50;96184.09;;;7.59;84.61
43934;BME280;59081;42.706;23.306;2022-11-11T01:51:45;96390.56;;;8.73;86.21
43934;BME280;59081;42.706;23.306;2022-11-11T01:54:35;96271.03;;;7.83;86.75
43934;BME280;59081;42.706;23.306;2022-11-11T01:57:31;96392.53;;;8.69;87.56
43934;BME280;59081;42.706;23.306;2022-11-11T02:00:09;96291.41;;;7.86;88.05
43934;BME280;59081;42.706;23.306;2022-11-11T02:05:09;96389.84;;;8.48;89.32
43934;BME280;59081;42.706;23.306;2022-11-11T02:07:56;96247.53;;;7.47;90.18
43934;BME280;59081;42.706;23.306;2022-11-11T02:10:24;96292.22;;;7.79;90.85
43934;BME280;59081;42.706;23.306;2022-11-11T02:12:51;96248.69;;;7.39;91.52
43934;BME280;59081;42.706;23.306;2022-11-11T02:15:35;96275.75;;;7.58;92.70
43934;BME280;59081;42.706;23.306;2022-11-11T02:18:01;96341.19;;;8.13;92.20
43934;BME280;59081;42.706;23.306;2022-11-11T02:20:29;96269.47;;;7.82;92.24
43934;BME280;59081;42.706;23.306;2022-11-11T02:23:06;96409.00;;;8.76;91.71
43934;BME280;59081;42.706;23.306;2022-11-11T02:25:36;96294.16;;;7.93;91.64
43934;BME280;59081;42.706;23.306;2022-11-11T02:28:05;96243.63;;;7.73;91.57
43934;BME280;59081;42.706;23.306;2022-11-11T02:30:32;96209.13;;;7.47;91.85
43934;BME280;59081;42.706;23.306;2022-11-11T02:32:58;96195.44;;;7.40;91.63
43934;BME280;59081;42.706;23.306;2022-11-11T02:35:32;96201.31;;;7.42;91.35
43934;BME280;59081;42.706;23.306;2022-11-11T02:38:00;96161.00;;;7.24;91.74
43934;BME280;59081;42.706;23.306;2022-11-11T02:40:43;96258.50;;;7.86;91.56
43934;BME280;59081;42.706;23.306;2022-11-11T02:43:29;96303.94;;;8.04;91.56
43934;BME280;59081;42.706;23.306;2022-11-11T02:45:55;96208.38;;;7.53;91.62
43934;BME280;59081;42.706;23.306;2022-11-11T02:48:21;96343.94;;;8.48;91.27
43934;BME280;59081;42.706;23.306;2022-11-11T02:50:47;96212.28;;;7.66;90.81
43934;BME280;59081;42.706;23.306;2022-11-11T02:53:13;96344.72;;;8.45;90.97
43934;BME280;59081;42.706;23.306;2022-11-11T02:55:38;96307.47;;;8.26;90.95
43934;BME280;59081;42.706;23.306;2022-11-11T02:58:04;96322.38;;;8.25;91.22
43934;BME280;59081;42.706;23.306;2022-11-11T03:00:29;96420.31;;;9.06;90.63
43934;BME280;59081;42.706;23.306;2022-11-11T03:02:55;96336.84;;;8.61;90.38
43934;BME280;59081;42.706;23.306;2022-11-11T03:05:21;96376.41;;;8.92;89.04
43934;BME280;59081;42.706;23.306;2022-11-11T03:07:49;96424.59;;;9.25;87.35
43934;BME280;59081;42.706;23.306;2022-11-11T03:10:15;96307.03;;;8.56;86.53
43934;BME280;59081;42.706;23.306;2022-11-11T03:12:40;96422.22;;;9.31;84.97
43934;BME280;59081;42.706;23.306;2022-11-11T03:15:06;96345.81;;;8.80;84.08
43934;BME280;59081;42.706;23.306;2022-11-11T03:17:32;96223.22;;;7.95;83.54
43934;BME280;59081;42.706;23.306;2022-11-11T03:20:05;96414.44;;;9.01;83.94
43934;BME280;59081;42.706;23.306;2022-11-11T03:23:05;96410.53;;;8.88;82.78
43934;BME280;59081;42.706;23.306;2022-11-11T03:25:31;96412.16;;;8.78;81.83
43934;BME280;59081;42.706;23.306;2022-11-11T03:28:11;96267.91;;;7.92;80.73
43934;BME280;59081;42.706;23.306;2022-11-11T03:30:43;96282.38;;;8.03;79.64
43934;BME280;59081;42.706;23.306;2022-11-11T03:33:10;96214.25;;;7.52;79.65
43934;BME280;59081;42.706;23.306;2022-11-11T03:35:36;96254.19;;;7.49;80.10
43934;BME280;59081;42.706;23.306;2022-11-11T03:38:04;96166.03;;;6.94;81.63
43934;BME280;59081;42.706;23.306;2022-11-11T03:40:53;96309.84;;;7.85;82.94
43934;BME280;59081;42.706;23.306;2022-11-11T03:43:22;96414.94;;;8.46;85.07
43934;BME280;59081;42.706;23.306;2022-11-11T03:45:48;96223.66;;;7.26;86.95
43934;BME280;59081;42.706;23.306;2022-11-11T03:48:14;96312.59;;;7.92;89.82
43934;BME280;59081;42.706;23.306;2022-11-11T03:50:40;96411.75;;;8.72;91.24
43934;BME280;59081;42.706;23.306;2022-11-11T03:53:06;96348.63;;;8.33;91.01
43934;BME280;59081;42.706;23.306;2022-11-11T03:55:32;96274.97;;;7.96;91.82
43934;BME280;59081;42.706;23.306;2022-11-11T03:57:58;96177.06;;;7.40;91.77
43934;BME280;59081;42.706;23.306;2022-11-11T04:00:25;96238.91;;;7.94;92.15
43934;BME280;59081;42.706;23.306;2022-11-11T04:03:00;96339.94;;;8.70;94.13
43934;BME280;59081;42.706;23.306;2022-11-11T04:05:45;96279.22;;;8.44;94.12
43934;BME280;59081;42.706;23.306;2022-11-11T04:08:45;96357.91;;;9.03;93.33
43934;BME280;59081;42.706;23.306;2022-11-11T04:11:32;96273.28;;;8.52;94.22
43934;BME280;59081;42.706;23.306;2022-11-11T04:14:05;96352.38;;;9.18;95.06
43934;BME280;59081;42.706;23.306;2022-11-11T04:16:50;96238.81;;;8.44;95.24
43934;BME280;59081;42.706;23.306;2022-11-11T04:19:16;96281.06;;;8.79;94.82
43934;BME280;59081;42.706;23.306;2022-11-11T04:22:00;96345.25;;;9.27;94.58
43934;BME280;59081;42.706;23.306;2022-11-11T04:24:25;96331.06;;;9.32;94.30
43934;BME280;59081;42.706;23.306;2022-11-11T04:27:11;96211.72;;;8.50;93.98
43934;BME280;59081;42.706;23.306;2022-11-11T04:29:37;96212.94;;;8.45;93.99
43934;BME280;59081;42.706;23.306;2022-11-11T04:32:08;96400.44;;;9.65;94.23
43934;BME280;59081;42.706;23.306;2022-11-11T04:34:54;96418.03;;;9.82;95.04
43934;BME280;59081;42.706;23.306;2022-11-11T04:37:21;96223.44;;;8.64;94.76
43934;BME280;59081;42.706;23.306;2022-11-11T04:39:47;96310.28;;;9.28;94.35
43934;BME280;59081;42.706;23.306;2022-11-11T04:42:32;96374.88;;;9.68;94.92
43934;BME280;59081;42.706;23.306;2022-11-11T04:44:58;96423.06;;;9.97;95.05
43934;BME280;59081;42.706;23.306;2022-11-11T04:48:15;96326.75;;;9.31;95.11
43934;BME280;59081;42.706;23.306;2022-11-11T04:50:43;96428.94;;;10.03;95.39
43934;BME280;59081;42.706;23.306;2022-11-11T04:53:27;96346.72;;;9.46;95.33
43934;BME280;59081;42.706;23.306;2022-11-11T04:55:57;96430.56;;;9.90;96.09
43934;BME280;59081;42.706;23.306;2022-11-11T04:58:41;96312.28;;;9.20;95.65
43934;BME280;59081;42.706;23.306;2022-11-11T05:01:07;96394.47;;;9.77;95.33
43934;BME280;59081;42.706;23.306;2022-11-11T05:03:32;96277.78;;;9.05;94.66
43934;BME280;59081;42.706;23.306;2022-11-11T05:05:59;96294.59;;;9.21;95.04
43934;BME280;59081;42.706;23.306;2022-11-11T05:08:45;96353.41;;;9.41;95.41
43934;BME280;59081;42.706;23.306;2022-11-11T05:11:34;96276.22;;;9.04;95.11
43934;BME280;59081;42.706;23.306;2022-11-11T05:14:05;96408.94;;;9.92;94.33
43934;BME280;59081;42.706;23.306;2022-11-11T05:16:51;96221.03;;;8.70;94.53
43934;BME280;59081;42.706;23.306;2022-11-11T05:19:35;96310.69;;;9.23;93.92
43934;BME280;59081;42.706;23.306;2022-11-11T05:24:50;96362.34;;;9.60;93.87
43934;BME280;59081;42.706;23.306;2022-11-11T05:27:34;96265.28;;;8.97;92.84
43934;BME280;59081;42.706;23.306;2022-11-11T05:30:00;96217.97;;;8.61;92.73
43934;BME280;59081;42.706;23.306;2022-11-11T05:32:26;96306.38;;;9.18;92.31
43934;BME280;59081;42.706;23.306;2022-11-11T05:34:52;96369.88;;;9.52;92.40
43934;BME280;59081;42.706;23.306;2022-11-11T05:37:18;96361.38;;;9.18;92.98
43934;BME280;59081;42.706;23.306;2022-11-11T05:39:47;96330.00;;;9.08;92.36
43934;BME280;59081;42.706;23.306;2022-11-11T05:42:12;96255.63;;;8.53;91.94
43934;BME280;59081;42.706;23.306;2022-11-11T05:44:41;96411.84;;;9.63;91.82
43934;BME280;59081;42.706;23.306;2022-11-11T05:47:07;96473.78;;;10.00;91.84
43934;BME280;59081;42.706;23.306;2022-11-11T05:52:17;96259.19;;;8.50;91.37
43934;BME280;59081;42.706;23.306;2022-11-11T05:54:44;96337.09;;;9.02;91.47
43934;BME280;59081;42.706;23.306;2022-11-11T05:57:10;96299.13;;;8.72;91.51
43934;BME280;59081;42.706;23.306;2022-11-11T05:59:38;96357.09;;;9.06;92.21
43934;BME280;59081;42.706;23.306;2022-11-11T06:02:06;96365.69;;;9.19;91.35
43934;BME280;59081;42.706;23.306;2022-11-11T06:04:31;96449.91;;;9.75;90.72
43934;BME280;59081;42.706;23.306;2022-11-11T06:06:59;96497.31;;;10.04;90.87
43934;BME280;59081;42.706;23.306;2022-11-11T06:09:25;96490.59;;;10.12;90.46
43934;BME280;59081;42.706;23.306;2022-11-11T06:11:51;96345.72;;;9.08;91.06
43934;BME280;59081;42.706;23.306;2022-11-11T06:14:26;96384.91;;;9.30;90.88
43934;BME280;59081;42.706;23.306;2022-11-11T06:16:52;96432.31;;;9.59;90.62
43934;BME280;59081;42.706;23.306;2022-11-11T06:19:18;96401.75;;;9.35;91.07
43934;BME280;59081;42.706;23.306;2022-11-11T06:21:44;96365.78;;;8.94;91.65
43934;BME280;59081;42.706;23.306;2022-11-11T06:24:21;96377.13;;;9.07;91.72
43934;BME280;59081;42.706;23.306;2022-11-11T06:26:49;96337.22;;;8.63;92.61
43934;BME280;59081;42.706;23.306;2022-11-11T06:29:15;96466.91;;;9.53;92.60
43934;BME280;59081;42.706;23.306;2022-11-11T06:31:40;96387.75;;;9.01;92.08
43934;BME280;59081;42.706;23.306;2022-11-11T06:34:06;96523.75;;;9.91;92.09
43934;BME280;59081;42.706;23.306;2022-11-11T06:36:32;96530.03;;;9.88;91.77
43934;BME280;59081;42.706;23.306;2022-11-11T06:38:57;96386.25;;;8.79;92.25
43934;BME280;59081;42.706;23.306;2022-11-11T06:41:23;96486.94;;;9.57;92.28
43934;BME280;59081;42.706;23.306;2022-11-11T06:43:50;96548.56;;;9.84;92.55
43934;BME280;59081;42.706;23.306;2022-11-11T06:46:23;96553.94;;;10.09;92.83
43934;BME280;59081;42.706;23.306;2022-11-11T06:48:49;96441.00;;;9.43;91.51
43934;BME280;59081;42.706;23.306;2022-11-11T06:51:15;96392.47;;;8.97;91.55
43934;BME280;59081;42.706;23.306;2022-11-11T06:53:41;96334.84;;;8.72;91.52
43934;BME280;59081;42.706;23.306;2022-11-11T06:56:08;96408.47;;;9.34;93.41
43934;BME280;59081;42.706;23.306;2022-11-11T06:58:34;96538.22;;;10.09;91.33
43934;BME280;59081;42.706;23.306;2022-11-11T07:01:06;96445.66;;;9.64;94.28
43934;BME280;59081;42.706;23.306;2022-11-11T07:03:32;96494.16;;;10.72;99.58
43934;BME280;59081;42.706;23.306;2022-11-11T07:06:00;96380.31;;;9.78;89.28
43934;BME280;59081;42.706;23.306;2022-11-11T07:08:25;96539.06;;;10.69;88.31
43934;BME280;59081;42.706;23.306;2022-11-11T07:10:51;96422.06;;;9.66;89.06
43934;BME280;59081;42.706;23.306;2022-11-11T07:13:17;96402.97;;;9.34;89.97
43934;BME280;59081;42.706;23.306;2022-11-11T07:15:43;96466.41;;;9.79;90.14
43934;BME280;59081;42.706;23.306;2022-11-11T07:18:09;96385.34;;;9.18;89.94
43934;BME280;59081;42.706;23.306;2022-11-11T07:20:35;96544.91;;;10.19;90.54
43934;BME280;59081;42.706;23.306;2022-11-11T07:23:02;96549.97;;;10.17;90.62
43934;BME280;59081;42.706;23.306;2022-11-11T07:25:28;96419.13;;;9.15;91.04
43934;BME280;59081;42.706;23.306;2022-11-11T07:27:56;96394.06;;;8.95;91.21
43934;BME280;59081;42.706;23.306;2022-11-11T07:30:21;96511.28;;;9.69;91.69
43934;BME280;59081;42.706;23.306;2022-11-11T07:32:49;96572.81;;;10.07;91.45
43934;BME280;59081;42.706;23.306;2022-11-11T07:35:15;96438.72;;;9.20;91.67
43934;BME280;59081;42.706;23.306;2022-11-11T07:37:42;96581.47;;;10.09;91.53
43934;BME280;59081;42.706;23.306;2022-11-11T07:40:10;96459.94;;;9.30;91.38
43934;BME280;59081;42.706;23.306;2022-11-11T07:42:42;96541.50;;;9.76;91.64
43934;BME280;59081;42.706;23.306;2022-11-11T07:45:11;96492.88;;;9.45;91.44
43934;BME280;59081;42.706;23.306;2022-11-11T07:47:37;96494.91;;;9.16;91.94
43934;BME280;59081;42.706;23.306;2022-11-11T07:50:04;96466.25;;;9.06;91.79
43934;BME280;59081;42.706;23.306;2022-11-11T07:52:31;96402.72;;;8.76;91.43
43934;BME280;59081;42.706;23.306;2022-11-11T07:54:56;96571.75;;;9.76;91.91
43934;BME280;59081;42.706;23.306;2022-11-11T07:57:22;96543.91;;;9.60;91.79
43934;BME280;59081;42.706;23.306;2022-11-11T07:59:48;96505.06;;;9.40;91.44
43934;BME280;59081;42.706;23.306;2022-11-11T08:02:14;96548.63;;;9.66;90.98
43934;BME280;59081;42.706;23.306;2022-11-11T08:04:42;96374.13;;;8.41;91.01
43934;BME280;59081;42.706;23.306;2022-11-11T08:07:07;96456.88;;;8.86;91.04
43934;BME280;59081;42.706;23.306;2022-11-11T08:09:36;96427.88;;;8.63;91.49
43934;BME280;59081;42.706;23.306;2022-11-11T08:12:08;96522.00;;;9.35;91.31
43934;BME280;59081;42.706;23.306;2022-11-11T08:14:52;96535.28;;;9.54;91.56
43934;BME280;59081;42.706;23.306;2022-11-11T08:17:18;96484.28;;;9.21;90.41
43934;BME280;59081;42.706;23.306;2022-11-11T08:19:43;96527.41;;;9.53;90.00
43934;BME280;59081;42.706;23.306;2022-11-11T08:22:09;96452.13;;;9.04;89.88
43934;BME280;59081;42.706;23.306;2022-11-11T08:24:34;96523.47;;;9.61;90.14
43934;BME280;59081;42.706;23.306;2022-11-11T08:27:00;96607.44;;;10.04;89.44
43934;BME280;59081;42.706;23.306;2022-11-11T08:29:25;96476.44;;;9.30;89.06
43934;BME280;59081;42.706;23.306;2022-11-11T08:31:51;96498.38;;;9.48;88.53
43934;BME280;59081;42.706;23.306;2022-11-11T08:34:17;96459.50;;;9.35;88.12
43934;BME280;59081;42.706;23.306;2022-11-11T08:36:43;96561.00;;;10.13;87.05
43934;BME280;59081;42.706;23.306;2022-11-11T08:39:08;96486.53;;;9.62;86.18
43934;BME280;59081;42.706;23.306;2022-11-11T08:41:34;96440.28;;;9.32;85.84
43934;BME280;59081;42.706;23.306;2022-11-11T08:43:59;96492.41;;;9.64;85.56
43934;BME280;59081;42.706;23.306;2022-11-11T08:46:25;96603.34;;;10.52;84.99
43934;BME280;59081;42.706;23.306;2022-11-11T08:48:51;96590.75;;;10.54;84.54
43934;BME280;59081;42.706;23.306;2022-11-11T08:51:17;96481.56;;;10.08;84.57
43934;BME280;59081;42.706;23.306;2022-11-11T08:53:43;96559.59;;;10.57;82.97
43934;BME280;59081;42.706;23.306;2022-11-11T08:56:09;96481.56;;;10.12;82.60
43934;BME280;59081;42.706;23.306;2022-11-11T08:58:36;96608.97;;;10.93;82.17
43934;BME280;59081;42.706;23.306;2022-11-11T09:01:02;96462.66;;;10.14;82.07
43934;BME280;59081;42.706;23.306;2022-11-11T09:03:28;96575.59;;;10.84;81.30
43934;BME280;59081;42.706;23.306;2022-11-11T09:05:59;96349.06;;;9.51;81.22
43934;BME280;59081;42.706;23.306;2022-11-11T09:08:25;96387.41;;;9.76;80.86
43934;BME280;59081;42.706;23.306;2022-11-11T09:10:50;96454.41;;;10.18;80.49
43934;BME280;59081;42.706;23.306;2022-11-11T09:13:16;96352.53;;;9.59;79.29
43934;BME280;59081;42.706;23.306;2022-11-11T09:15:42;96372.16;;;9.61;79.43
43934;BME280;59081;42.706;23.306;2022-11-11T09:18:07;96476.75;;;10.30;78.81
43934;BME280;59081;42.706;23.306;2022-11-11T09:20:34;96437.53;;;10.08;79.31
43934;BME280;59081;42.706;23.306;2022-11-11T09:23:01;96601.31;;;11.18;79.39
43934;BME280;59081;42.706;23.306;2022-11-11T09:25:27;96528.34;;;10.78;78.87
43934;BME280;59081;42.706;23.306;2022-11-11T09:27:54;96523.25;;;10.76;77.00
43934;BME280;59081;42.706;23.306;2022-11-11T09:30:20;96535.72;;;10.92;76.60
43934;BME280;59081;42.706;23.306;2022-11-11T09:32:46;96543.94;;;10.99;75.92
43934;BME280;59081;42.706;23.306;2022-11-11T09:35:11;96411.09;;;10.22;75.38
43934;BME280;59081;42.706;23.306;2022-11-11T09:37:37;96364.09;;;9.91;75.11
43934;BME280;59081;42.706;23.306;2022-11-11T09:40:03;96604.69;;;11.40;74.88
43934;BME280;59081;42.706;23.306;2022-11-11T09:42:39;96591.34;;;11.31;75.15
43934;BME280;59081;42.706;23.306;2022-11-11T09:45:36;96588.91;;;11.40;75.05
43934;BME280;59081;42.706;23.306;2022-11-11T09:50:35;96523.16;;;10.91;74.95
43934;BME280;59081;42.706;23.306;2022-11-11T09:53:31;96483.94;;;10.72;75.42
43934;BME280;59081;42.706;23.306;2022-11-11T09:56:06;96436.53;;;10.40;75.09
43934;BME280;59081;42.706;23.306;2022-11-11T09:58:46;96559.44;;;11.27;74.75
43934;BME280;59081;42.706;23.306;2022-11-11T10:01:16;96512.06;;;10.98;74.78
43934;BME280;59081;42.706;23.306;2022-11-11T10:03:53;96441.03;;;10.71;74.57
43934;BME280;59081;42.706;23.306;2022-11-11T10:06:28;96480.16;;;10.97;73.65
43934;BME280;59081;42.706;23.306;2022-11-11T10:09:00;96572.88;;;11.66;72.88
43934;BME280;59081;42.706;23.306;2022-11-11T10:11:47;96563.94;;;11.55;73.20
43934;BME280;59081;42.706;23.306;2022-11-11T10:14:15;96547.84;;;11.46;73.07
43934;BME280;59081;42.706;23.306;2022-11-11T10:16:57;96403.88;;;10.42;73.76
43934;BME280;59081;42.706;23.306;2022-11-11T10:22:24;96378.28;;;10.41;73.09
43934;BME280;59081;42.706;23.306;2022-11-11T10:25:19;96443.53;;;10.96;78.46
43934;BME280;59081;42.706;23.306;2022-11-11T10:27:47;96579.59;;;11.65;73.40
43934;BME280;59081;42.706;23.306;2022-11-11T10:30:31;96412.31;;;10.69;72.88
43934;BME280;59081;42.706;23.306;2022-11-11T10:33:13;96433.81;;;10.85;73.16
43934;BME280;59081;42.706;23.306;2022-11-11T10:35:44;96456.03;;;11.08;72.78
43934;BME280;59081;42.706;23.306;2022-11-11T10:38:37;96552.41;;;11.63;72.59
43934;BME280;59081;42.706;23.306;2022-11-11T10:41:19;96490.03;;;11.35;72.41
43934;BME280;59081;42.706;23.306;2022-11-11T10:43:47;96434.56;;;10.89;72.25
43934;BME280;59081;42.706;23.306;2022-11-11T10:48:59;96557.16;;;11.97;69.25
43934;BME280;59081;42.706;23.306;2022-11-11T10:51:30;96387.91;;;10.67;69.20
43934;BME280;59081;42.706;23.306;2022-11-11T10:54:11;96391.34;;;10.78;69.08
43934;BME280;59081;42.706;23.306;2022-11-11T10:56:43;96427.41;;;10.95;69.54
43934;BME280;59081;42.706;23.306;2022-11-11T10:59:50;96458.81;;;11.08;68.30
43934;BME280;59081;42.706;23.306;2022-11-11T11:02:26;96343.50;;;10.58;75.15
43934;BME280;59081;42.706;23.306;2022-11-11T11:05:02;96420.44;;;10.83;68.20
43934;BME280;59081;42.706;23.306;2022-11-11T11:07:41;96433.22;;;11.04;68.01
43934;BME280;59081;42.706;23.306;2022-11-11T11:10:15;96345.94;;;10.53;67.95
43934;BME280;59081;42.706;23.306;2022-11-11T11:15:26;96543.13;;;11.84;66.83
43934;BME280;59081;42.706;23.306;2022-11-11T11:18:00;96530.16;;;11.81;67.09
43934;BME280;59081;42.706;23.306;2022-11-11T11:20:28;96366.13;;;10.80;66.42
43934;BME280;59081;42.706;23.306;2022-11-11T11:22:57;96330.91;;;10.57;65.22
43934;BME280;59081;42.706;23.306;2022-11-11T11:25:25;96322.97;;;10.66;65.21
43934;BME280;59081;42.706;23.306;2022-11-11T11:28:04;96476.91;;;11.80;64.57
43934;BME280;59081;42.706;23.306;2022-11-11T11:30:30;96522.91;;;12.25;63.68
43934;BME280;59081;42.706;23.306;2022-11-11T11:32:58;96491.03;;;12.16;62.65
43934;BME280;59081;42.706;23.306;2022-11-11T11:35:40;96371.22;;;11.49;61.67
43934;BME280;59081;42.706;23.306;2022-11-11T11:38:10;96306.97;;;11.22;61.71
43934;BME280;59081;42.706;23.306;2022-11-11T11:40:51;96342.72;;;11.60;60.91
43934;BME280;59081;42.706;23.306;2022-11-11T11:43:39;96416.56;;;12.09;61.11
43934;BME280;59081;42.706;23.306;2022-11-11T11:46:37;96288.81;;;11.25;60.84
43934;BME280;59081;42.706;23.306;2022-11-11T11:52:10;96505.94;;;12.76;60.27
43934;BME280;59081;42.706;23.306;2022-11-11T11:55:05;96463.25;;;12.54;60.06
43934;BME280;59081;42.706;23.306;2022-11-11T12:00:30;96424.28;;;12.22;60.06
43934;BME280;59081;42.706;23.306;2022-11-11T12:05:46;96436.66;;;12.37;59.84
43934;BME280;59081;42.706;23.306;2022-11-11T12:11:18;96495.91;;;12.63;59.92
43934;BME280;59081;42.706;23.306;2022-11-11T12:16:44;96382.34;;;11.73;59.74
43934;BME280;59081;42.706;23.306;2022-11-11T12:22:52;96492.66;;;12.41;60.07
43934;BME280;59081;42.706;23.306;2022-11-11T12:28:03;96426.59;;;11.96;60.07
43934;BME280;59081;42.706;23.306;2022-11-11T12:30:37;96242.13;;;10.76;59.95
43934;BME280;59081;42.706;23.306;2022-11-11T12:33:32;96480.31;;;12.49;59.55
43934;BME280;59081;42.706;23.306;2022-11-11T12:38:56;96396.44;;;11.82;60.30
43934;BME280;59081;42.706;23.306;2022-11-11T12:44:59;96445.97;;;12.23;60.85
43934;BME280;59081;42.706;23.306;2022-11-11T12:50:14;96474.13;;;12.41;61.49
43934;BME280;59081;42.706;23.306;2022-11-11T12:52:52;96479.94;;;12.47;61.50
43934;BME280;59081;42.706;23.306;2022-11-11T12:56:05;96329.78;;;11.53;61.37
43934;BME280;59081;42.706;23.306;2022-11-11T12:58:43;96341.94;;;11.59;61.20
43934;BME280;59081;42.706;23.306;2022-11-11T13:04:27;96462.75;;;12.36;61.20
43934;BME280;59081;42.706;23.306;2022-11-11T13:12:21;96309.72;;;11.22;60.29
43934;BME280;59081;42.706;23.306;2022-11-11T13:17:18;96374.69;;;11.57;60.79
43934;BME280;59081;42.706;23.306;2022-11-11T13:20:02;96349.34;;;11.35;60.78
43934;BME280;59081;42.706;23.306;2022-11-11T13:22:31;96386.91;;;11.56;61.11
43934;BME280;59081;42.706;23.306;2022-11-11T13:25:02;96313.06;;;11.06;61.51
43934;BME280;59081;42.706;23.306;2022-11-11T13:33:13;96487.50;;;12.16;61.71
43934;BME280;59081;42.706;23.306;2022-11-11T13:35:54;96447.31;;;11.81;61.84
43934;BME280;59081;42.706;23.306;2022-11-11T13:38:35;96427.41;;;11.63;62.07
43934;BME280;59081;42.706;23.306;2022-11-11T13:41:05;96318.31;;;10.94;62.34
43934;BME280;59081;42.706;23.306;2022-11-11T13:43:33;96492.06;;;11.99;62.49
43934;BME280;59081;42.706;23.306;2022-11-11T13:46:02;96475.22;;;11.90;62.85
43934;BME280;59081;42.706;23.306;2022-11-11T13:48:31;96476.03;;;11.87;62.78
43934;BME280;59081;42.706;23.306;2022-11-11T13:53:47;96395.81;;;11.37;62.62
43934;BME280;59081;42.706;23.306;2022-11-11T13:56:27;96391.16;;;11.30;63.09
43934;BME280;59081;42.706;23.306;2022-11-11T13:58:54;96400.91;;;11.42;62.91
43934;BME280;59081;42.706;23.306;2022-11-11T14:01:21;96490.44;;;12.02;62.42
43934;BME280;59081;42.706;23.306;2022-11-11T14:13:54;96495.94;;;12.05;62.36
43934;BME280;59081;42.706;23.306;2022-11-11T14:22:00;96505.66;;;12.13;62.36
43934;BME280;59081;42.706;23.306;2022-11-11T14:24:42;96443.78;;;11.80;61.99
43934;BME280;59081;42.706;23.306;2022-11-11T14:29:36;96428.47;;;11.76;61.81
43934;BME280;59081;42.706;23.306;2022-11-11T14:40:31;96486.13;;;12.01;62.92
43934;BME280;59081;42.706;23.306;2022-11-11T14:42:59;96394.94;;;11.43;63.33
43934;BME280;59081;42.706;23.306;2022-11-11T14:57:24;96515.03;;;12.23;63.64
43934;BME280;59081;42.706;23.306;2022-11-11T14:59:54;96478.94;;;11.76;71.85
43934;BME280;59081;42.706;23.306;2022-11-11T15:02:33;96463.16;;;11.77;64.73
43934;BME280;59081;42.706;23.306;2022-11-11T15:05:01;96519.13;;;12.11;64.53
43934;BME280;59081;42.706;23.306;2022-11-11T15:07:57;96523.41;;;12.16;64.12
43934;BME280;59081;42.706;23.306;2022-11-11T15:13:46;96534.06;;;11.83;65.39
43934;BME280;59081;42.706;23.306;2022-11-11T15:16:26;96535.66;;;11.81;65.77